Time;durP1;ratioP1;P1;durP2;ratioP2;P2;SDS_P1;SDS_P2;PMS_P1;PMS_P2;Temp;Humidity;BMP_temperature;BMP_pressure;BME280_temperature;BME280_humidity;BME280_pressure;Samples;Min_cycle;Max_cycle;Signal;HPM_P1;HPM_P2
2021/09/12 00:00:11;;;;;;;0.40;0.20;;;12.80;1.40;;;14.23;100.00;95644.55;646439;212;39568;-71
2021/09/12 00:02:52;;;;;;;0.40;0.20;;;12.80;1.40;;;14.10;100.00;95643.73;644955;212;43436;-71
2021/09/12 00:05:34;;;;;;;0.40;0.20;;;12.60;1.40;;;14.04;100.00;95645.61;646287;216;37091;-72
2021/09/12 00:08:16;;;;;;;0.40;0.20;;;12.60;1.40;;;13.94;100.00;95645.27;646266;212;31566;-72
2021/09/12 00:10:57;;;;;;;0.40;0.20;;;12.50;1.40;;;14.06;100.00;95643.27;647829;213;42250;-72
2021/09/12 00:16:14;;;;;;;0.40;0.20;;;12.70;1.40;;;13.96;100.00;95636.95;619586;222;31795;-72
2021/09/12 00:18:58;;;;;;;0.40;0.20;;;12.60;1.40;;;13.97;100.00;95638.38;645866;212;32069;-72
2021/09/12 00:21:40;;;;;;;0.40;0.20;;;12.70;1.40;;;13.96;100.00;95636.11;646370;216;43088;-72
2021/09/12 00:24:22;;;;;;;0.40;0.20;;;12.50;1.40;;;13.91;100.00;95632.45;646774;216;31584;-72
2021/09/12 00:27:04;;;;;;;0.40;0.20;;;12.50;1.40;;;13.91;100.00;95633.15;647446;216;33507;-72
2021/09/12 00:29:45;;;;;;;0.40;0.20;;;12.40;1.40;;;13.87;100.00;95630.98;647142;212;31821;-71
2021/09/12 00:32:27;;;;;;;0.40;0.20;;;12.30;1.40;;;13.79;100.00;95633.47;646176;216;31479;-71
2021/09/12 00:35:51;;;;;;;0.40;0.20;;;12.20;1.40;;;13.74;100.00;95632.39;645313;212;31701;-72
2021/09/12 00:38:33;;;;;;;0.40;0.20;;;12.10;1.40;;;13.68;100.00;95635.52;646799;216;31494;-71
2021/09/12 00:41:14;;;;;;;0.40;0.20;;;12.10;1.40;;;13.62;100.00;95637.30;647322;212;32069;-71
2021/09/12 00:43:56;;;;;;;0.40;0.20;;;12.00;1.40;;;13.51;100.00;95637.27;645491;212;37903;-71
2021/09/12 00:46:39;;;;;;;0.40;0.20;;;11.80;1.40;;;13.67;100.00;95636.92;645382;212;34739;-71
2021/09/12 00:49:21;;;;;;;0.40;0.20;;;12.20;1.40;;;13.66;100.00;95633.47;646193;212;31532;-72
2021/09/12 00:52:08;;;;;;;1.40;0.50;;;12.20;1.40;;;13.52;100.00;95631.59;646191;212;40938;-71
2021/09/12 00:54:49;;;;;;;0.40;0.20;;;12.10;1.40;;;13.45;100.00;95633.48;646573;212;32933;-72
2021/09/12 00:57:33;;;;;;;0.40;0.20;;;11.90;1.40;;;13.40;100.00;95632.10;646926;216;42120;-71
2021/09/12 01:00:13;;;;;;;0.40;0.20;;;11.90;1.40;;;13.45;100.00;95631.78;647658;212;31501;-71
2021/09/12 01:02:55;;;;;;;0.40;0.20;;;12.00;1.40;;;13.48;100.00;95633.02;645390;212;31624;-72
2021/09/12 01:05:36;;;;;;;0.40;0.20;;;12.00;1.40;;;13.49;100.00;95626.97;646041;212;42107;-71
2021/09/12 01:08:19;;;;;;;0.40;0.20;;;12.00;1.40;;;13.47;100.00;95627.32;646877;212;34126;-72
2021/09/12 01:11:00;;;;;;;0.60;0.50;;;11.90;1.40;;;13.46;100.00;95620.31;645856;216;42366;-72
2021/09/12 01:13:41;;;;;;;0.40;0.20;;;12.00;1.40;;;13.39;100.00;95618.89;645309;216;31876;-71
2021/09/12 01:16:23;;;;;;;0.40;0.30;;;12.00;1.40;;;13.45;100.00;95621.23;646363;212;31488;-72
2021/09/12 01:19:05;;;;;;;0.40;0.20;;;12.00;1.40;;;13.53;100.00;95616.79;646997;216;31549;-72
2021/09/12 01:21:47;;;;;;;0.40;0.20;;;12.20;1.40;;;13.56;100.00;95618.61;617487;225;34188;-71
2021/09/12 01:24:29;;;;;;;0.40;0.20;;;12.20;1.40;;;13.53;100.00;95608.55;647135;212;31463;-71
2021/09/12 01:27:11;;;;;;;0.40;0.20;;;12.10;1.40;;;13.52;100.00;95608.16;646232;216;32286;-71
2021/09/12 01:30:07;;;;;;;0.40;0.20;;;12.00;1.40;;;13.54;100.00;95609.78;647067;212;31482;-72
2021/09/12 01:32:48;;;;;;;0.40;0.20;;;12.10;1.40;;;13.55;100.00;95601.84;646657;216;31667;-72
2021/09/12 01:35:51;;;;;;;0.40;0.20;;;12.10;1.40;;;13.51;100.00;95603.72;646740;212;31716;-72
2021/09/12 01:38:36;;;;;;;0.40;0.20;;;12.00;1.40;;;13.54;100.00;95606.19;646175;216;32002;-72
2021/09/12 01:41:17;;;;;;;0.40;0.20;;;12.00;1.40;;;13.47;100.00;95611.72;646834;212;31567;-71
2021/09/12 01:43:59;;;;;;;0.40;0.20;;;11.80;1.40;;;13.34;100.00;95610.52;646428;212;32102;-71
2021/09/12 01:46:46;;;;;;;0.40;0.20;;;11.60;1.40;;;13.12;100.00;95612.69;646367;212;42433;-72
2021/09/12 01:49:28;;;;;;;0.40;0.20;;;11.40;1.40;;;13.01;100.00;95612.05;647329;216;32689;-71
2021/09/12 01:52:11;;;;;;;0.40;0.20;;;11.20;1.40;;;13.01;100.00;95609.47;645607;216;31485;-71
2021/09/12 01:54:53;;;;;;;0.40;0.20;;;11.10;1.40;;;12.93;100.00;95611.80;646241;212;31535;-71
2021/09/12 01:57:35;;;;;;;0.40;0.20;;;11.10;1.40;;;12.76;100.00;95607.91;646814;216;31512;-71
2021/09/12 02:00:17;;;;;;;0.40;0.20;;;10.90;1.40;;;12.80;100.00;95611.16;647495;212;32449;-72
2021/09/12 02:02:58;;;;;;;0.40;0.20;;;11.10;1.40;;;12.70;100.00;95612.20;645808;212;31653;-71
2021/09/12 02:05:40;;;;;;;0.40;0.20;;;11.00;1.40;;;12.51;100.00;95606.59;646671;212;31503;-72
2021/09/12 02:08:22;;;;;;;0.40;0.30;;;10.90;1.40;;;12.48;100.00;95608.19;647014;216;32029;-72
2021/09/12 02:11:04;;;;;;;0.40;0.20;;;10.90;1.40;;;12.53;100.00;95609.25;646649;215;31541;-71
2021/09/12 02:13:45;;;;;;;0.40;0.20;;;10.90;1.40;;;12.49;100.00;95604.58;645978;212;31500;-72
2021/09/12 02:16:27;;;;;;;0.40;0.20;;;11.00;1.40;;;12.39;100.00;95608.52;645558;212;31571;-71
2021/09/12 02:19:09;;;;;;;0.40;0.20;;;10.90;1.40;;;12.38;100.00;95607.13;647066;216;31588;-71
2021/09/12 02:21:50;;;;;;;0.40;0.20;;;10.90;1.40;;;12.37;100.00;95612.70;645890;216;31488;-71
2021/09/12 02:24:32;;;;;;;0.40;0.20;;;10.90;1.40;;;12.46;100.00;95607.88;646304;212;31523;-71
2021/09/12 02:27:14;;;;;;;0.40;0.20;;;11.00;1.40;;;12.47;100.00;95606.59;645627;216;31878;-71
2021/09/12 02:29:55;;;;;;;0.40;0.20;;;11.00;1.40;;;12.52;100.00;95612.28;645776;212;31558;-72
2021/09/12 02:32:37;;;;;;;0.40;0.20;;;11.00;1.40;;;12.55;100.00;95603.11;645337;212;31518;-70
2021/09/12 02:35:51;;;;;;;0.40;0.30;;;11.10;1.40;;;12.64;100.00;95607.12;645610;216;31902;-72
2021/09/12 02:38:33;;;;;;;0.40;0.20;;;11.10;1.40;;;12.68;100.00;95602.78;646299;216;31601;-71
2021/09/12 02:41:15;;;;;;;0.40;0.20;;;11.20;1.40;;;12.77;100.00;95609.83;646889;212;31518;-71
2021/09/12 02:43:56;;;;;;;0.40;0.20;;;11.30;1.40;;;12.91;100.00;95617.47;646026;212;31704;-72
2021/09/12 02:46:38;;;;;;;0.40;0.20;;;11.40;1.40;;;12.74;100.00;95619.49;647083;216;31573;-72
2021/09/12 02:49:20;;;;;;;0.40;0.20;;;11.20;1.40;;;12.69;100.00;95625.75;646192;212;31464;-71
2021/09/12 02:52:01;;;;;;;0.40;0.20;;;11.20;1.40;;;12.63;100.00;95626.52;645433;216;31640;-71
2021/09/12 02:54:46;;;;;;;0.40;0.20;;;11.20;1.40;;;12.57;100.00;95623.30;646657;216;32095;-71
2021/09/12 02:57:27;;;;;;;0.40;0.20;;;11.10;1.40;;;12.61;100.00;95620.03;647085;216;32054;-71
2021/09/12 03:00:10;;;;;;;0.40;0.20;;;11.20;1.40;;;12.75;100.00;95622.13;646862;212;31539;-72
2021/09/12 03:02:51;;;;;;;0.40;0.20;;;11.40;1.40;;;12.87;100.00;95620.35;646911;212;32266;-71
2021/09/12 03:05:33;;;;;;;0.40;0.20;;;11.70;1.40;;;12.98;100.00;95616.45;646955;212;32063;-72
2021/09/12 03:10:49;;;;;;;0.40;0.20;;;11.90;1.40;;;13.20;100.00;95618.28;645847;212;31548;-72
2021/09/12 03:13:31;;;;;;;0.40;0.20;;;11.90;1.40;;;13.34;100.00;95614.98;618802;226;31831;-70
2021/09/12 03:16:15;;;;;;;0.40;0.20;;;12.10;1.40;;;13.40;100.00;95612.66;642893;217;31477;-72
2021/09/12 03:18:57;;;;;;;0.40;0.20;;;12.10;1.40;;;13.47;100.00;95610.86;647596;212;32882;-72
2021/09/12 03:21:39;;;;;;;0.40;0.20;;;12.30;1.40;;;13.54;100.00;95609.67;646547;216;32002;-71
2021/09/12 03:24:20;;;;;;;0.40;0.30;;;12.40;1.40;;;13.56;100.00;95605.38;646578;212;33391;-71
2021/09/12 03:27:02;;;;;;;0.40;0.20;;;12.40;1.40;;;13.67;100.00;95609.20;646571;212;31837;-72
2021/09/12 03:29:44;;;;;;;0.40;0.20;;;12.30;1.40;;;13.63;100.00;95603.48;646982;212;31458;-72
2021/09/12 03:32:26;;;;;;;0.40;0.20;;;12.40;1.40;;;13.62;100.00;95602.57;647050;216;32948;-72
2021/09/12 03:35:51;;;;;;;0.40;0.20;;;12.30;1.40;;;13.66;100.00;95603.95;645651;212;31507;-71
2021/09/12 03:38:33;;;;;;;0.40;0.20;;;12.30;1.40;;;13.69;100.00;95601.89;645778;212;34324;-72
2021/09/12 03:41:15;;;;;;;0.40;0.20;;;12.30;1.40;;;13.67;100.00;95597.80;647465;212;42107;-71
2021/09/12 03:43:56;;;;;;;0.40;0.20;;;12.30;1.40;;;13.64;100.00;95597.22;646552;216;32892;-71
2021/09/12 03:46:38;;;;;;;0.40;0.20;;;12.20;1.40;;;13.60;100.00;95593.53;646890;212;32001;-72
2021/09/12 03:49:20;;;;;;;0.40;0.20;;;12.10;1.40;;;13.54;100.00;95594.84;647446;213;36730;-71
2021/09/12 03:52:02;;;;;;;0.40;0.20;;;12.10;1.40;;;13.49;100.00;95595.78;646016;212;31511;-72
2021/09/12 03:54:49;;;;;;;0.40;0.20;;;12.00;1.40;;;13.49;100.00;95593.91;646523;214;40281;-81
2021/09/12 03:57:37;;;;;;;0.40;0.20;;;12.00;1.40;;;13.61;100.00;95593.58;646601;216;31471;-72
2021/09/12 04:00:19;;;;;;;0.40;0.20;;;12.20;1.40;;;-143.44;100.00;122422.95;648218;216;31870;-72
2021/09/12 04:03:03;;;;;;;0.40;0.20;;;12.00;1.40;;;;;;646531;213;31518;-71
2021/09/12 04:05:44;;;;;;;0.40;0.20;;;12.10;1.40;;;;;;645727;212;31467;-72
2021/09/12 04:08:25;;;;;;;0.40;0.20;;;12.30;1.40;;;;;;647258;212;31463;-72
2021/09/12 04:11:06;;;;;;;0.40;0.20;;;12.30;1.40;;;;;;645114;213;31753;-72
2021/09/12 04:13:50;;;;;;;0.40;0.20;;;12.10;1.40;;;;;;645712;216;31545;-72
2021/09/12 04:16:31;;;;;;;0.40;0.20;;;12.10;1.40;;;;;;646561;216;31480;-72
2021/09/12 04:19:12;;;;;;;0.40;0.20;;;12.00;1.40;;;;;;647012;212;31573;-72
2021/09/12 04:21:53;;;;;;;0.40;0.20;;;11.90;1.40;;;;;;646745;215;31517;-72
2021/09/12 04:24:34;;;;;;;0.40;0.20;;;11.90;1.40;;;;;;647091;212;31619;-72
2021/09/12 04:27:18;;;;;;;0.40;0.20;;;11.90;1.40;;;;;;645124;212;31531;-72
2021/09/12 04:29:59;;;;;;;0.40;0.20;;;11.70;1.40;;;;;;646799;216;31593;-72
2021/09/12 04:32:41;;;;;;;0.40;0.20;;;11.60;1.40;;;;;;647231;216;31644;-72
2021/09/12 04:35:52;;;;;;;0.40;0.20;;;11.50;1.40;;;13.16;100.00;95607.14;645808;212;31525;-72
2021/09/12 04:38:34;;;;;;;0.40;0.20;;;11.50;1.40;;;12.95;100.00;95599.82;647095;216;34292;-71
2021/09/12 04:41:16;;;;;;;0.40;0.20;;;11.30;1.40;;;12.79;100.00;95602.09;648267;216;31493;-71
2021/09/12 04:43:57;;;;;;;0.40;0.20;;;11.20;1.40;;;12.84;100.00;95593.78;645466;212;43169;-72
2021/09/12 04:46:39;;;;;;;0.40;0.20;;;11.20;1.40;;;12.87;100.00;95599.34;645551;216;42105;-71
2021/09/12 04:49:24;;;;;;;0.40;0.20;;;11.20;1.40;;;12.88;100.00;95598.43;646108;216;31866;-71
2021/09/12 04:52:06;;;;;;;0.40;0.20;;;11.30;1.40;;;12.89;100.00;95595.09;646201;216;31706;-72
2021/09/12 04:54:48;;;;;;;0.40;0.20;;;11.30;1.40;;;12.95;100.00;95599.12;646057;216;35159;-72
2021/09/12 04:57:30;;;;;;;0.40;0.20;;;11.50;1.40;;;12.98;100.00;95597.00;644439;212;31505;-72
2021/09/12 05:00:12;;;;;;;0.40;0.20;;;11.50;1.40;;;12.95;100.00;95596.06;645679;212;31540;-72
2021/09/12 05:02:54;;;;;;;0.40;0.20;;;11.50;1.40;;;12.99;100.00;95594.41;645409;212;32016;-73
2021/09/12 05:05:36;;;;;;;0.40;0.20;;;11.50;1.40;;;13.05;100.00;95601.41;618766;222;31910;-72
2021/09/12 05:08:17;;;;;;;0.40;0.20;;;11.50;1.40;;;13.08;100.00;95603.55;646892;216;40535;-72
2021/09/12 05:14:02;;;;;;;0.40;0.20;;;11.60;1.40;;;13.19;100.00;95601.45;634488;220;31701;-81
2021/09/12 05:16:46;;;;;;;0.40;0.20;;;11.70;1.40;;;13.27;100.00;95598.05;647057;216;31584;-72
2021/09/12 05:19:28;;;;;;;0.40;0.20;;;11.80;1.40;;;13.34;100.00;95595.98;646729;216;31486;-72
2021/09/12 05:22:10;;;;;;;0.40;0.40;;;11.80;1.40;;;13.34;100.00;95601.26;645363;216;31485;-72
2021/09/12 05:24:51;;;;;;;0.40;0.20;;;11.80;1.40;;;13.35;100.00;95602.27;645302;212;35754;-71
2021/09/12 05:27:33;;;;;;;0.40;0.20;;;11.80;1.40;;;13.35;100.00;95605.59;647589;212;31475;-72
2021/09/12 05:30:15;;;;;;;0.40;0.20;;;11.90;1.40;;;13.39;100.00;95606.30;646420;216;31868;-71
2021/09/12 05:32:56;;;;;;;0.40;0.20;;;11.90;1.40;;;13.48;100.00;95610.63;647314;212;31494;-71
2021/09/12 05:35:51;;;;;;;0.40;0.20;;;11.90;1.40;;;13.48;100.00;95607.78;645707;216;31798;-71
2021/09/12 05:38:32;;;;;;;0.40;0.20;;;12.00;1.40;;;13.56;100.00;95609.11;645681;212;31478;-72
2021/09/12 05:41:14;;;;;;;0.40;0.20;;;12.20;1.40;;;13.57;100.00;95605.41;613894;222;36653;-71
2021/09/12 05:43:59;;;;;;;0.40;0.20;;;12.20;1.40;;;13.61;100.00;95603.97;646433;216;31505;-71
2021/09/12 05:46:41;;;;;;;0.40;0.30;;;12.20;1.40;;;13.70;100.00;95607.56;630033;218;42286;-73
2021/09/12 05:49:22;;;;;;;0.40;0.20;;;12.30;1.40;;;13.77;100.00;95609.83;619348;222;42459;-71
2021/09/12 05:52:05;;;;;;;0.40;0.20;;;12.40;1.40;;;13.75;100.00;95610.25;646814;216;31494;-71
2021/09/12 05:54:46;;;;;;;0.40;0.20;;;12.50;1.40;;;13.93;100.00;95607.63;645987;216;42413;-71
2021/09/12 05:57:28;;;;;;;0.40;0.20;;;12.50;1.40;;;14.02;100.00;95607.69;646699;212;31554;-71
2021/09/12 06:00:10;;;;;;;0.40;0.20;;;12.70;1.40;;;14.14;100.00;95607.20;646901;216;42506;-71
2021/09/12 06:02:55;;;;;;;0.40;0.20;;;12.70;1.40;;;14.22;100.00;95610.31;646045;212;31479;-72
2021/09/12 06:05:37;;;;;;;0.40;0.20;;;12.80;1.40;;;14.35;100.00;95610.51;645932;216;31500;-72
2021/09/12 06:08:21;;;;;;;0.40;0.20;;;13.00;1.40;;;14.54;100.00;95612.53;646355;212;31486;-71
2021/09/12 06:11:09;;;;;;;0.40;0.20;;;13.00;1.40;;;14.70;100.00;95614.52;618824;226;31894;-72
2021/09/12 06:13:47;;;;;;;0.40;0.20;;;13.10;1.40;;;14.62;100.00;95617.27;646670;216;31568;-72
2021/09/12 06:16:29;;;;;;;0.40;0.20;;;13.30;1.40;;;14.84;100.00;95614.83;644727;212;31479;-72
2021/09/12 06:19:11;;;;;;;0.40;0.20;;;13.40;1.40;;;15.05;100.00;95612.31;619464;226;31786;-72
2021/09/12 06:21:52;;;;;;;0.40;0.20;;;13.70;1.40;;;15.21;100.00;95618.09;648354;212;31473;-71
2021/09/12 06:24:34;;;;;;;0.40;0.20;;;13.90;1.40;;;15.58;100.00;95620.38;645298;212;31552;-71
2021/09/12 06:27:16;;;;;;;0.40;0.20;;;14.20;1.40;;;15.68;100.00;95621.65;647598;216;31570;-71
2021/09/12 06:29:57;;;;;;;0.40;0.20;;;14.40;1.40;;;15.89;100.00;95620.25;647859;212;31571;-72
2021/09/12 06:32:39;;;;;;;0.40;0.20;;;14.60;1.40;;;16.15;100.00;95626.01;645543;212;31603;-72
2021/09/12 06:35:51;;;;;;;0.40;0.20;;;14.80;1.40;;;16.14;100.00;95627.27;647748;216;31503;-72
2021/09/12 06:38:33;;;;;;;0.40;0.20;;;14.90;1.40;;;16.24;100.00;95622.58;647574;216;31484;-71
2021/09/12 06:41:15;;;;;;;0.40;0.20;;;15.00;1.40;;;16.39;100.00;95622.45;646658;216;31460;-72
2021/09/12 06:43:56;;;;;;;0.40;0.20;;;15.10;1.40;;;16.35;100.00;95627.72;647725;212;42091;-71
2021/09/12 06:46:39;;;;;;;0.40;0.20;;;15.10;1.40;;;16.47;100.00;95629.70;645451;216;31650;-71
2021/09/12 06:49:20;;;;;;;0.40;0.20;;;15.20;1.40;;;16.60;100.00;95622.98;647358;216;31462;-72
2021/09/12 06:52:02;;;;;;;0.40;0.20;;;15.30;1.40;;;16.60;100.00;95626.89;646687;216;31470;-72
2021/09/12 06:54:44;;;;;;;0.40;0.20;;;15.40;1.40;;;16.77;100.00;95632.84;645969;216;31541;-72
2021/09/12 06:57:26;;;;;;;0.40;0.20;;;15.50;1.40;;;17.03;100.00;95634.03;645882;216;31510;-71
2021/09/12 07:00:08;;;;;;;0.40;0.20;;;15.70;1.40;;;17.25;100.00;95633.41;618641;222;32482;-71
2021/09/12 07:02:49;;;;;;;0.40;0.20;;;15.90;1.40;;;17.45;100.00;95632.81;617858;226;31959;-71
2021/09/12 07:05:40;;;;;;;0.40;0.20;;;16.10;1.40;;;17.59;100.00;95631.06;646555;216;31531;-73
2021/09/12 07:08:25;;;;;;;0.40;0.20;;;16.20;1.40;;;17.83;100.00;95628.78;646451;216;31468;-71
2021/09/12 07:11:13;;;;;;;0.40;0.20;;;16.30;1.40;;;18.04;100.00;95625.51;645905;216;31491;-71
2021/09/12 07:13:55;;;;;;;0.40;0.20;;;16.50;1.40;;;18.20;100.00;95629.38;646292;216;31505;-71
2021/09/12 07:16:37;;;;;;;0.40;0.20;;;16.50;1.40;;;18.25;100.00;95629.55;644028;212;32096;-72
2021/09/12 07:19:19;;;;;;;0.40;0.20;;;16.60;1.40;;;18.53;100.00;95632.22;647091;216;32694;-72
2021/09/12 07:22:00;;;;;;;0.40;0.20;;;16.70;1.40;;;18.59;100.00;95631.36;646428;212;31547;-72
2021/09/12 07:24:42;;;;;;;0.40;0.20;;;16.90;1.40;;;18.76;100.00;95628.11;647058;216;31549;-72
2021/09/12 07:27:30;;;;;;;0.40;0.20;;;17.00;1.40;;;18.98;100.00;95630.03;646257;216;32709;-72
2021/09/12 07:30:14;;;;;;;0.40;0.20;;;17.30;1.40;;;19.24;100.00;95631.34;647136;216;31491;-71
2021/09/12 07:32:55;;;;;;;0.40;0.20;;;17.30;1.40;;;19.36;100.00;95629.03;646278;212;31504;-72
2021/09/12 07:35:56;;;;;;;0.40;0.20;;;17.60;1.40;;;19.59;100.00;95631.02;647560;216;32851;-72
2021/09/12 07:38:44;;;;;;;0.40;0.20;;;17.70;1.40;;;19.84;100.00;95633.55;642175;217;31547;-71
2021/09/12 07:41:26;;;;;;;0.40;0.20;;;18.00;1.40;;;20.03;100.00;95630.98;645747;212;31573;-72
2021/09/12 07:44:07;;;;;;;0.40;0.30;;;18.30;1.40;;;20.18;100.00;95637.80;646273;212;42102;-72
2021/09/12 07:46:49;;;;;;;0.40;0.20;;;18.40;1.40;;;20.37;100.00;95633.52;646473;216;31506;-71
2021/09/12 07:49:31;;;;;;;0.40;0.20;;;18.50;1.40;;;20.72;100.00;95634.95;617932;226;31948;-72
2021/09/12 07:52:12;;;;;;;0.40;0.20;;;18.70;1.40;;;20.79;100.00;95637.93;619975;226;32107;-72
2021/09/12 07:55:00;;;;;;;0.40;0.20;;;18.90;1.40;;;21.08;100.00;95644.95;647116;216;31470;-71
2021/09/12 07:57:47;;;;;;;0.40;0.30;;;19.00;1.40;;;;;;646149;216;31496;-71
2021/09/12 08:00:28;;;;;;;0.40;0.40;;;18.90;1.40;;;;;;646408;212;31480;-72
2021/09/12 08:03:09;;;;;;;0.40;0.20;;;18.40;1.40;;;;;;646257;216;42106;-72
2021/09/12 08:05:50;;;;;;;0.40;0.20;;;18.50;1.40;;;;;;646820;212;31747;-72
2021/09/12 08:08:37;;;;;;;0.40;0.20;;;18.30;1.40;;;;;;647152;216;42100;-72
2021/09/12 08:11:25;;;;;;;0.40;0.20;;;18.20;1.40;;;;;;646175;216;31508;-72
2021/09/12 08:14:08;;;;;;;0.40;0.20;;;18.20;1.40;;;;;;646355;216;31571;-72
2021/09/12 08:16:49;;;;;;;0.40;0.20;;;18.20;1.40;;;;;;646684;212;31675;-72
2021/09/12 08:19:30;;;;;;;0.40;0.20;;;18.20;1.40;;;;;;645928;216;31618;-72
2021/09/12 08:22:11;;;;;;;0.40;0.20;;;18.40;1.40;;;;;;646862;212;31474;-72
2021/09/12 08:24:52;;;;;;;0.40;0.20;;;18.50;1.40;;;;;;647441;216;31998;-72
2021/09/12 08:27:35;;;;;;;0.40;0.20;;;18.80;1.40;;;;;;644918;216;31778;-72
2021/09/12 08:30:19;;;;;;;0.40;0.20;;;18.90;1.40;;;;;;646018;213;31605;-71
2021/09/12 08:33:00;;;;;;;0.40;0.20;;;19.20;1.40;;;;;;631256;218;31842;-72
2021/09/12 08:35:51;;;;;;;0.40;0.20;;;19.60;1.40;;;22.27;97.90;95654.67;645730;216;31521;-73
2021/09/12 08:38:32;;;;;;;0.40;0.20;;;19.60;1.40;;;22.03;98.36;95650.33;647035;216;31504;-71
2021/09/12 08:41:20;;;;;;;0.40;0.20;;;19.50;1.40;;;21.99;97.17;95653.23;646734;216;31686;-72
2021/09/12 08:44:08;;;;;;;0.40;0.20;;;19.40;1.40;;;21.67;96.02;95647.70;646037;213;31514;-72
2021/09/12 08:46:50;;;;;;;0.40;0.20;;;19.10;1.40;;;-143.44;100.00;122422.95;646389;216;31612;-72
2021/09/12 08:49:31;;;;;;;0.40;0.20;;;19.00;1.40;;;;;;647256;216;31604;-71
2021/09/12 08:52:12;;;;;;;0.40;0.20;;;19.10;1.40;;;;;;645644;216;31628;-72
2021/09/12 08:54:53;;;;;;;0.40;0.20;;;19.20;1.40;;;;;;647218;216;31475;-72
2021/09/12 08:57:34;;;;;;;0.40;0.20;;;19.40;1.40;;;;;;647444;212;31520;-72
2021/09/12 09:02:49;;;;;;;0.40;0.20;;;19.20;1.40;;;;;;642784;217;31461;-72
2021/09/12 09:05:32;;;;;;;0.40;0.20;;;19.30;1.40;;;;;;647313;216;31490;-72
2021/09/12 09:08:14;;;;;;;0.40;0.20;;;20.70;1.40;;;;;;645328;212;31564;-72
2021/09/12 09:10:57;;;;;;;0.40;0.20;;;26.20;1.40;;;;;;647266;216;31623;-72
2021/09/12 09:13:38;;;;;;;0.40;0.20;;;24.60;1.40;;;;;;647398;212;31656;-72
2021/09/12 09:16:27;;;;;;;0.40;0.20;;;25.60;1.40;;;;;;645365;216;31603;-72
2021/09/12 09:19:09;;;;;;;0.40;0.20;;;24.70;1.40;;;;;;647022;216;32012;-72
2021/09/12 09:21:56;;;;;;;0.40;0.20;;;22.40;1.40;;;;;;618761;225;31795;-72
2021/09/12 09:24:37;;;;;;;0.40;0.20;;;21.10;1.40;;;;;;647804;216;31539;-72
2021/09/12 09:27:27;;;;;;;0.40;0.20;;;20.90;1.40;;;;;;646518;216;31550;-72
2021/09/12 09:30:08;;;;;;;0.40;0.20;;;25.30;1.40;;;;;;645953;212;31499;-72
2021/09/12 09:35:51;;;;;;;0.40;0.20;;;28.90;1.40;;;31.73;50.66;95626.52;647013;212;31558;-72
2021/09/12 09:38:35;;;;;;;0.40;0.20;;;30.30;1.40;;;30.99;48.98;95623.94;645825;212;31485;-72
2021/09/12 09:41:18;;;;;;;0.40;0.20;;;29.80;1.40;;;30.98;47.06;95624.72;639097;212;31802;-72
2021/09/12 09:43:59;;;;;;;0.40;0.20;;;29.50;1.40;;;31.18;48.71;95623.97;646887;216;42845;-72
2021/09/12 09:46:44;;;;;;;0.40;0.20;;;29.40;1.40;;;33.58;57.64;95614.09;645328;216;32095;-72
2021/09/12 09:49:36;;;;;;;0.40;0.20;;;30.40;1.40;;;31.02;47.15;95619.15;646157;216;31651;-72
2021/09/12 09:52:15;;;;;;;0.40;0.20;;;28.60;1.40;;;32.38;52.13;95609.91;646990;212;31472;-73
2021/09/12 09:54:56;;;;;;;0.40;0.20;;;29.90;1.40;;;32.82;42.82;95614.33;648498;216;31508;-73
2021/09/12 09:57:38;;;;;;;0.40;0.20;;;29.70;1.40;;;35.60;43.07;95604.71;646011;212;31538;-73
2021/09/12 10:00:20;;;;;;;0.40;0.20;;;30.70;1.40;;;36.42;37.48;95604.23;645950;212;31505;-73
2021/09/12 10:05:39;;;;;;;0.40;0.30;;;32.80;1.40;;;38.85;37.31;95597.75;619495;226;31959;-73
2021/09/12 10:08:22;;;;;;;0.40;0.20;;;33.00;1.40;;;37.18;35.08;95596.52;645778;216;31591;-73
2021/09/12 10:11:05;;;;;;;0.40;0.20;;;32.10;1.40;;;34.98;40.19;95596.37;642178;217;31478;-73
2021/09/12 10:13:53;;;;;;;0.40;0.20;;;31.50;1.40;;;37.66;36.12;95585.83;647254;216;42182;-73
2021/09/12 10:16:35;;;;;;;0.40;0.20;;;32.50;1.40;;;37.29;36.56;95594.67;646236;216;31732;-73
2021/09/12 10:19:30;;;;;;;0.40;0.20;;;32.60;1.40;;;-143.44;100.00;122422.95;646784;212;31476;-72
2021/09/12 10:22:17;;;;;;;0.40;0.20;;;28.50;1.40;;;;;;646525;216;31515;-74
2021/09/12 10:25:09;;;;;;;0.40;0.30;;;31.00;1.40;;;;;;645212;212;31494;-73
2021/09/12 10:30:42;;;;;;;0.40;0.20;;;26.90;1.40;;;;;;647664;216;31468;-73
2021/09/12 10:35:59;;;;;;;0.40;0.20;;;29.40;1.40;;;-143.44;100.00;122422.95;646798;216;31518;-73
2021/09/12 10:38:46;;;;;;;0.40;0.20;;;31.60;1.40;;;;;;646081;216;31534;-73
2021/09/12 10:41:30;;;;;;;0.40;0.20;;;31.50;1.40;;;;;;618046;222;31870;-72
2021/09/12 10:44:11;;;;;;;0.40;0.20;;;32.50;1.40;;;;;;645918;212;31663;-73
2021/09/12 10:46:55;;;;;;;0.40;0.20;;;34.20;1.40;;;;;;645609;212;31560;-73
2021/09/12 10:49:36;;;;;;;0.40;0.20;;;34.60;1.40;;;;;;647021;216;31477;-73
2021/09/12 10:52:29;;;;;;;0.40;0.20;;;32.90;1.40;;;;;;646652;212;31748;-73
2021/09/12 10:55:13;;;;;;;0.40;0.30;;;32.00;1.40;;;;;;645601;216;31632;-73
2021/09/12 10:58:00;;;;;;;0.40;0.20;;;32.50;1.40;;;;;;645643;216;31502;-73
2021/09/12 11:00:47;;;;;;;0.40;0.30;;;33.20;1.40;;;;;;646525;212;31499;-73
2021/09/12 11:03:30;;;;;;;0.40;0.20;;;31.80;1.40;;;;;;646490;212;31503;-73
2021/09/12 11:06:17;;;;;;;0.40;0.20;;;30.10;1.40;;;;;;618926;226;32004;-73
2021/09/12 11:08:58;;;;;;;0.40;0.20;;;31.10;1.40;;;;;;646059;212;31468;-73
2021/09/12 11:11:45;;;;;;;0.40;0.20;;;32.40;1.40;;;;;;646359;216;31493;-73
2021/09/12 11:14:32;;;;;;;0.40;0.20;;;28.80;1.40;;;;;;642050;219;31502;-73
2021/09/12 11:17:19;;;;;;;0.40;0.20;;;28.00;1.40;;;;;;645544;216;31522;-74
2021/09/12 11:20:07;;;;;;;0.40;0.20;;;26.70;1.40;;;;;;646448;216;31506;-73
2021/09/12 11:22:50;;;;;;;0.40;0.20;;;25.70;1.40;;;;;;648218;216;31491;-73
2021/09/12 11:25:31;;;;;;;0.40;0.20;;;25.90;1.40;;;;;;646401;212;31961;-73
2021/09/12 11:28:12;;;;;;;0.40;0.20;;;29.00;1.40;;;;;;646141;216;31573;-72
2021/09/12 11:30:53;;;;;;;0.40;0.20;;;30.60;1.40;;;;;;646760;212;31587;-72
2021/09/12 11:36:00;;;;;;;0.40;0.30;;;32.40;1.40;;;37.58;33.01;95548.80;619057;226;31962;-72
2021/09/12 11:38:42;;;;;;;0.40;0.20;;;32.20;1.40;;;35.49;35.91;95546.14;647544;216;31551;-72
2021/09/12 11:41:24;;;;;;;0.40;0.20;;;28.70;1.40;;;33.78;38.58;95547.19;639416;212;42409;-73
2021/09/12 11:44:05;;;;;;;0.40;0.20;;;26.50;1.40;;;31.97;40.81;95547.33;647447;212;31513;-72
2021/09/12 11:46:48;;;;;;;0.40;0.20;;;25.30;1.40;;;30.87;42.22;95545.06;647929;216;31610;-73
2021/09/12 11:49:32;;;;;;;0.40;0.20;;;24.70;1.40;;;30.39;43.20;95540.69;644910;216;31503;-72
2021/09/12 11:52:14;;;;;;;0.40;0.20;;;25.50;1.40;;;33.53;39.73;95535.58;647597;212;31762;-72
2021/09/12 11:55:02;;;;;;;0.40;0.20;;;30.00;1.40;;;35.82;35.29;95532.38;646722;216;31684;-74
2021/09/12 11:58:02;;;;;;;0.40;0.20;;;31.60;1.40;;;35.90;36.09;95531.72;646582;212;31666;-72
2021/09/12 12:00:47;;;;;;;0.40;0.20;;;30.40;1.40;;;35.28;35.29;95526.05;647178;216;32052;-72
2021/09/12 12:03:26;;;;;;;0.40;0.20;;;28.90;1.40;;;33.57;37.79;95527.19;647271;212;32598;-74
2021/09/12 12:06:10;;;;;;;0.40;0.20;;;29.20;1.40;;;37.71;34.19;95514.95;647026;216;31813;-74
2021/09/12 12:09:02;;;;;;;0.40;0.30;;;32.20;1.40;;;34.73;34.85;95518.73;618753;222;31999;-74
2021/09/12 12:11:44;;;;;;;0.40;0.20;;;31.10;1.40;;;38.52;33.05;95505.61;645751;216;31761;-74
2021/09/12 12:14:26;;;;;;;0.40;0.20;;;32.80;1.40;;;41.19;28.68;95504.45;646181;216;31598;-74
2021/09/12 12:17:08;;;;;;;0.40;0.20;;;33.00;1.40;;;-143.44;100.00;122422.95;648243;216;32052;-74
2021/09/12 12:19:49;;;;;;;0.40;0.20;;;33.20;1.40;;;;;;629456;222;31759;-75
2021/09/12 12:22:34;;;;;;;0.40;0.20;;;33.20;1.40;;;;;;619553;222;32082;-73
2021/09/12 12:25:15;;;;;;;0.40;0.20;;;31.70;1.40;;;;;;647301;213;31463;-74
2021/09/12 12:27:56;;;;;;;0.40;0.20;;;32.30;1.40;;;;;;645500;216;31621;-73
2021/09/12 12:30:37;;;;;;;0.40;0.20;;;32.30;1.40;;;;;;647597;212;31943;-74